sensor_id;sensor_type;location;lat;lon;timestamp;P1;durP1;ratioP1;P2;durP2;ratioP2
46222;SDS011;31943;51.410;7.564;2022-07-29T00:02:04;2.17;;;1.20;;
46222;SDS011;31943;51.410;7.564;2022-07-29T00:04:29;2.30;;;0.98;;
46222;SDS011;31943;51.410;7.564;2022-07-29T00:06:55;5.35;;;1.05;;
46222;SDS011;31943;51.410;7.564;2022-07-29T00:09:22;5.32;;;1.35;;
46222;SDS011;31943;51.410;7.564;2022-07-29T00:11:48;4.20;;;1.30;;
46222;SDS011;31943;51.410;7.564;2022-07-29T00:14:14;5.55;;;1.25;;
46222;SDS011;31943;51.410;7.564;2022-07-29T00:16:40;6.53;;;1.17;;
46222;SDS011;31943;51.410;7.564;2022-07-29T00:19:05;6.70;;;1.40;;
46222;SDS011;31943;51.410;7.564;2022-07-29T00:21:31;3.30;;;1.25;;
46222;SDS011;31943;51.410;7.564;2022-07-29T00:23:57;3.53;;;1.30;;
46222;SDS011;31943;51.410;7.564;2022-07-29T00:26:24;3.90;;;1.23;;
46222;SDS011;31943;51.410;7.564;2022-07-29T00:28:49;4.22;;;1.15;;
46222;SDS011;31943;51.410;7.564;2022-07-29T00:31:15;3.35;;;1.27;;
46222;SDS011;31943;51.410;7.564;2022-07-29T00:33:40;3.17;;;1.17;;
46222;SDS011;31943;51.410;7.564;2022-07-29T00:36:06;4.40;;;1.27;;
46222;SDS011;31943;51.410;7.564;2022-07-29T00:38:33;4.18;;;1.40;;
46222;SDS011;31943;51.410;7.564;2022-07-29T00:40:59;2.58;;;1.02;;
46222;SDS011;31943;51.410;7.564;2022-07-29T00:43:26;3.05;;;1.20;;
46222;SDS011;31943;51.410;7.564;2022-07-29T00:45:52;3.88;;;1.25;;
46222;SDS011;31943;51.410;7.564;2022-07-29T00:48:17;3.28;;;1.23;;
46222;SDS011;31943;51.410;7.564;2022-07-29T00:50:43;4.25;;;1.25;;
46222;SDS011;31943;51.410;7.564;2022-07-29T00:53:09;7.88;;;1.33;;
46222;SDS011;31943;51.410;7.564;2022-07-29T00:55:37;3.35;;;1.30;;
46222;SDS011;31943;51.410;7.564;2022-07-29T00:58:03;3.92;;;1.23;;
46222;SDS011;31943;51.410;7.564;2022-07-29T01:00:31;4.32;;;1.33;;
46222;SDS011;31943;51.410;7.564;2022-07-29T01:02:57;6.60;;;1.50;;
46222;SDS011;31943;51.410;7.564;2022-07-29T01:05:24;3.25;;;1.10;;
46222;SDS011;31943;51.410;7.564;2022-07-29T01:07:52;3.92;;;1.77;;
46222;SDS011;31943;51.410;7.564;2022-07-29T01:10:19;3.17;;;1.30;;
46222;SDS011;31943;51.410;7.564;2022-07-29T01:12:46;2.65;;;1.10;;
46222;SDS011;31943;51.410;7.564;2022-07-29T01:15:14;2.67;;;1.30;;
46222;SDS011;31943;51.410;7.564;2022-07-29T01:17:42;8.27;;;1.58;;
46222;SDS011;31943;51.410;7.564;2022-07-29T01:20:13;5.40;;;1.23;;
46222;SDS011;31943;51.410;7.564;2022-07-29T01:22:52;5.03;;;1.40;;
46222;SDS011;31943;51.410;7.564;2022-07-29T01:25:31;3.33;;;1.35;;
46222;SDS011;31943;51.410;7.564;2022-07-29T01:28:17;2.38;;;1.13;;
46222;SDS011;31943;51.410;7.564;2022-07-29T01:31:12;3.13;;;1.33;;
46222;SDS011;31943;51.410;7.564;2022-07-29T01:33:41;2.60;;;1.35;;
46222;SDS011;31943;51.410;7.564;2022-07-29T01:36:10;2.97;;;1.13;;
46222;SDS011;31943;51.410;7.564;2022-07-29T01:38:40;3.38;;;1.08;;
46222;SDS011;31943;51.410;7.564;2022-07-29T01:41:08;4.35;;;1.20;;
46222;SDS011;31943;51.410;7.564;2022-07-29T01:43:38;3.22;;;1.25;;
46222;SDS011;31943;51.410;7.564;2022-07-29T01:46:11;3.83;;;1.15;;
46222;SDS011;31943;51.410;7.564;2022-07-29T01:48:43;4.80;;;1.60;;
46222;SDS011;31943;51.410;7.564;2022-07-29T01:51:14;3.47;;;1.05;;
46222;SDS011;31943;51.410;7.564;2022-07-29T01:53:43;4.88;;;1.48;;
46222;SDS011;31943;51.410;7.564;2022-07-29T01:56:15;4.47;;;1.50;;
46222;SDS011;31943;51.410;7.564;2022-07-29T01:58:43;5.28;;;1.50;;
46222;SDS011;31943;51.410;7.564;2022-07-29T02:01:13;8.30;;;1.42;;
46222;SDS011;31943;51.410;7.564;2022-07-29T02:03:41;2.92;;;1.10;;
46222;SDS011;31943;51.410;7.564;2022-07-29T02:06:09;2.58;;;1.17;;
46222;SDS011;31943;51.410;7.564;2022-07-29T02:08:36;3.92;;;1.42;;
46222;SDS011;31943;51.410;7.564;2022-07-29T02:11:03;5.70;;;1.50;;
46222;SDS011;31943;51.410;7.564;2022-07-29T02:13:31;3.80;;;1.10;;
46222;SDS011;31943;51.410;7.564;2022-07-29T02:15:59;4.05;;;1.35;;
46222;SDS011;31943;51.410;7.564;2022-07-29T02:18:28;4.15;;;1.20;;
46222;SDS011;31943;51.410;7.564;2022-07-29T02:20:55;3.35;;;1.45;;
46222;SDS011;31943;51.410;7.564;2022-07-29T02:23:23;4.00;;;1.30;;
46222;SDS011;31943;51.410;7.564;2022-07-29T02:25:53;4.82;;;1.42;;
46222;SDS011;31943;51.410;7.564;2022-07-29T02:28:21;2.67;;;1.17;;
46222;SDS011;31943;51.410;7.564;2022-07-29T02:30:50;3.72;;;1.23;;
46222;SDS011;31943;51.410;7.564;2022-07-29T02:33:18;3.75;;;1.15;;
46222;SDS011;31943;51.410;7.564;2022-07-29T02:35:48;6.53;;;1.40;;
46222;SDS011;31943;51.410;7.564;2022-07-29T02:38:15;4.43;;;1.38;;
46222;SDS011;31943;51.410;7.564;2022-07-29T02:40:41;3.63;;;1.65;;
46222;SDS011;31943;51.410;7.564;2022-07-29T02:43:10;6.68;;;1.35;;
46222;SDS011;31943;51.410;7.564;2022-07-29T02:45:36;3.35;;;1.33;;
46222;SDS011;31943;51.410;7.564;2022-07-29T02:48:04;5.72;;;1.77;;
46222;SDS011;31943;51.410;7.564;2022-07-29T02:50:34;3.28;;;1.40;;
46222;SDS011;31943;51.410;7.564;2022-07-29T02:53:07;6.30;;;1.80;;
46222;SDS011;31943;51.410;7.564;2022-07-29T02:55:39;3.97;;;1.30;;
46222;SDS011;31943;51.410;7.564;2022-07-29T02:58:10;4.70;;;1.65;;
46222;SDS011;31943;51.410;7.564;2022-07-29T03:00:41;2.33;;;1.30;;
46222;SDS011;31943;51.410;7.564;2022-07-29T03:03:10;5.07;;;1.88;;
46222;SDS011;31943;51.410;7.564;2022-07-29T03:05:39;3.58;;;1.48;;
46222;SDS011;31943;51.410;7.564;2022-07-29T03:08:08;4.18;;;1.65;;
46222;SDS011;31943;51.410;7.564;2022-07-29T03:10:35;5.33;;;1.50;;
46222;SDS011;31943;51.410;7.564;2022-07-29T03:13:04;4.65;;;1.33;;
46222;SDS011;31943;51.410;7.564;2022-07-29T03:15:30;2.75;;;1.35;;
46222;SDS011;31943;51.410;7.564;2022-07-29T03:17:57;2.30;;;1.27;;
46222;SDS011;31943;51.410;7.564;2022-07-29T03:20:23;6.35;;;1.73;;
46222;SDS011;31943;51.410;7.564;2022-07-29T03:22:50;5.80;;;1.73;;
46222;SDS011;31943;51.410;7.564;2022-07-29T03:25:18;4.10;;;1.30;;
46222;SDS011;31943;51.410;7.564;2022-07-29T03:27:45;4.63;;;1.58;;
46222;SDS011;31943;51.410;7.564;2022-07-29T03:30:12;3.50;;;1.60;;
46222;SDS011;31943;51.410;7.564;2022-07-29T03:32:38;2.78;;;1.65;;
46222;SDS011;31943;51.410;7.564;2022-07-29T03:35:05;3.03;;;1.27;;
46222;SDS011;31943;51.410;7.564;2022-07-29T03:37:31;4.53;;;1.55;;
46222;SDS011;31943;51.410;7.564;2022-07-29T03:39:57;4.93;;;1.40;;
46222;SDS011;31943;51.410;7.564;2022-07-29T03:42:25;3.38;;;1.65;;
46222;SDS011;31943;51.410;7.564;2022-07-29T03:44:58;3.63;;;1.50;;
46222;SDS011;31943;51.410;7.564;2022-07-29T03:47:28;5.60;;;1.85;;
46222;SDS011;31943;51.410;7.564;2022-07-29T03:49:56;1.88;;;1.20;;
46222;SDS011;31943;51.410;7.564;2022-07-29T03:52:27;3.93;;;1.70;;
46222;SDS011;31943;51.410;7.564;2022-07-29T03:54:53;4.57;;;1.95;;
46222;SDS011;31943;51.410;7.564;2022-07-29T03:57:35;5.47;;;1.73;;
46222;SDS011;31943;51.410;7.564;2022-07-29T04:00:03;4.03;;;1.67;;
46222;SDS011;31943;51.410;7.564;2022-07-29T04:02:30;4.28;;;1.63;;
46222;SDS011;31943;51.410;7.564;2022-07-29T04:04:56;4.07;;;1.58;;
46222;SDS011;31943;51.410;7.564;2022-07-29T04:07:22;3.95;;;1.63;;
46222;SDS011;31943;51.410;7.564;2022-07-29T04:09:48;3.35;;;1.50;;
46222;SDS011;31943;51.410;7.564;2022-07-29T04:12:14;7.80;;;1.80;;
46222;SDS011;31943;51.410;7.564;2022-07-29T04:14:42;4.82;;;1.35;;
46222;SDS011;31943;51.410;7.564;2022-07-29T04:17:08;3.08;;;1.30;;
46222;SDS011;31943;51.410;7.564;2022-07-29T04:19:34;3.40;;;1.35;;
46222;SDS011;31943;51.410;7.564;2022-07-29T04:22:01;4.70;;;1.60;;
46222;SDS011;31943;51.410;7.564;2022-07-29T04:24:28;4.22;;;1.30;;
46222;SDS011;31943;51.410;7.564;2022-07-29T04:26:54;3.35;;;1.60;;
46222;SDS011;31943;51.410;7.564;2022-07-29T04:29:20;3.47;;;1.60;;
46222;SDS011;31943;51.410;7.564;2022-07-29T04:31:47;4.90;;;1.40;;
46222;SDS011;31943;51.410;7.564;2022-07-29T04:34:12;2.65;;;1.50;;
46222;SDS011;31943;51.410;7.564;2022-07-29T04:36:38;4.38;;;1.52;;
46222;SDS011;31943;51.410;7.564;2022-07-29T04:39:04;4.88;;;1.70;;
46222;SDS011;31943;51.410;7.564;2022-07-29T04:41:29;6.57;;;1.90;;
46222;SDS011;31943;51.410;7.564;2022-07-29T04:43:55;3.28;;;1.60;;
46222;SDS011;31943;51.410;7.564;2022-07-29T04:46:21;5.82;;;1.80;;
46222;SDS011;31943;51.410;7.564;2022-07-29T04:48:48;2.78;;;1.27;;
46222;SDS011;31943;51.410;7.564;2022-07-29T04:51:14;4.60;;;1.92;;
46222;SDS011;31943;51.410;7.564;2022-07-29T04:53:40;4.75;;;1.73;;
46222;SDS011;31943;51.410;7.564;2022-07-29T04:56:06;3.55;;;1.52;;
46222;SDS011;31943;51.410;7.564;2022-07-29T04:58:33;4.05;;;1.50;;
46222;SDS011;31943;51.410;7.564;2022-07-29T05:00:59;5.75;;;1.83;;
46222;SDS011;31943;51.410;7.564;2022-07-29T05:03:25;7.20;;;1.65;;
46222;SDS011;31943;51.410;7.564;2022-07-29T05:05:52;3.85;;;1.45;;
46222;SDS011;31943;51.410;7.564;2022-07-29T05:08:17;4.93;;;1.50;;
46222;SDS011;31943;51.410;7.564;2022-07-29T05:10:43;5.95;;;2.05;;
46222;SDS011;31943;51.410;7.564;2022-07-29T05:13:09;4.78;;;1.38;;
46222;SDS011;31943;51.410;7.564;2022-07-29T05:15:35;5.10;;;1.80;;
46222;SDS011;31943;51.410;7.564;2022-07-29T05:18:01;3.70;;;1.33;;
46222;SDS011;31943;51.410;7.564;2022-07-29T05:20:28;4.43;;;1.30;;
46222;SDS011;31943;51.410;7.564;2022-07-29T05:22:55;5.68;;;1.45;;
46222;SDS011;31943;51.410;7.564;2022-07-29T05:25:22;5.20;;;1.98;;
46222;SDS011;31943;51.410;7.564;2022-07-29T05:27:47;5.68;;;1.75;;
46222;SDS011;31943;51.410;7.564;2022-07-29T05:30:16;5.38;;;1.30;;
46222;SDS011;31943;51.410;7.564;2022-07-29T05:32:42;4.35;;;1.75;;
46222;SDS011;31943;51.410;7.564;2022-07-29T05:35:08;3.92;;;1.35;;
46222;SDS011;31943;51.410;7.564;2022-07-29T05:37:33;6.35;;;1.40;;
46222;SDS011;31943;51.410;7.564;2022-07-29T05:40:00;4.93;;;1.63;;
46222;SDS011;31943;51.410;7.564;2022-07-29T05:42:26;2.60;;;1.13;;
46222;SDS011;31943;51.410;7.564;2022-07-29T05:44:52;3.33;;;1.55;;
46222;SDS011;31943;51.410;7.564;2022-07-29T05:47:18;7.45;;;1.15;;
46222;SDS011;31943;51.410;7.564;2022-07-29T05:49:43;6.75;;;1.35;;
46222;SDS011;31943;51.410;7.564;2022-07-29T05:52:09;4.60;;;1.30;;
46222;SDS011;31943;51.410;7.564;2022-07-29T05:54:34;3.03;;;0.90;;
46222;SDS011;31943;51.410;7.564;2022-07-29T05:57:02;4.82;;;1.35;;
46222;SDS011;31943;51.410;7.564;2022-07-29T05:59:28;3.88;;;1.05;;
46222;SDS011;31943;51.410;7.564;2022-07-29T06:01:53;5.13;;;1.27;;
46222;SDS011;31943;51.410;7.564;2022-07-29T06:04:19;6.90;;;1.33;;
46222;SDS011;31943;51.410;7.564;2022-07-29T06:06:45;3.78;;;1.40;;
46222;SDS011;31943;51.410;7.564;2022-07-29T06:09:10;5.68;;;1.60;;
46222;SDS011;31943;51.410;7.564;2022-07-29T06:11:36;3.58;;;1.33;;
46222;SDS011;31943;51.410;7.564;2022-07-29T06:14:03;4.68;;;1.52;;
46222;SDS011;31943;51.410;7.564;2022-07-29T06:16:29;2.28;;;1.10;;
46222;SDS011;31943;51.410;7.564;2022-07-29T06:18:54;4.55;;;1.27;;
46222;SDS011;31943;51.410;7.564;2022-07-29T06:21:20;4.70;;;1.27;;
46222;SDS011;31943;51.410;7.564;2022-07-29T06:23:46;2.67;;;1.33;;
46222;SDS011;31943;51.410;7.564;2022-07-29T06:26:11;4.18;;;1.40;;
46222;SDS011;31943;51.410;7.564;2022-07-29T06:28:37;3.78;;;1.20;;
46222;SDS011;31943;51.410;7.564;2022-07-29T06:31:04;5.85;;;1.40;;
46222;SDS011;31943;51.410;7.564;2022-07-29T06:33:30;2.47;;;1.30;;
46222;SDS011;31943;51.410;7.564;2022-07-29T06:35:56;5.75;;;1.55;;
46222;SDS011;31943;51.410;7.564;2022-07-29T06:38:21;4.03;;;1.52;;
46222;SDS011;31943;51.410;7.564;2022-07-29T06:40:47;4.53;;;1.20;;
46222;SDS011;31943;51.410;7.564;2022-07-29T06:43:13;2.95;;;1.40;;
46222;SDS011;31943;51.410;7.564;2022-07-29T06:45:38;4.82;;;1.48;;
46222;SDS011;31943;51.410;7.564;2022-07-29T06:48:06;3.50;;;1.40;;
46222;SDS011;31943;51.410;7.564;2022-07-29T06:50:31;3.22;;;1.27;;
46222;SDS011;31943;51.410;7.564;2022-07-29T06:52:57;3.10;;;1.27;;
46222;SDS011;31943;51.410;7.564;2022-07-29T06:55:23;5.45;;;1.90;;
46222;SDS011;31943;51.410;7.564;2022-07-29T06:57:48;2.40;;;1.20;;
46222;SDS011;31943;51.410;7.564;2022-07-29T07:00:14;3.88;;;1.42;;
46222;SDS011;31943;51.410;7.564;2022-07-29T07:02:40;4.38;;;1.27;;
46222;SDS011;31943;51.410;7.564;2022-07-29T07:05:08;6.25;;;1.50;;
46222;SDS011;31943;51.410;7.564;2022-07-29T07:07:33;3.75;;;1.33;;
46222;SDS011;31943;51.410;7.564;2022-07-29T07:09:59;4.43;;;1.25;;
46222;SDS011;31943;51.410;7.564;2022-07-29T07:12:25;5.40;;;1.35;;
46222;SDS011;31943;51.410;7.564;2022-07-29T07:14:50;6.03;;;1.50;;
46222;SDS011;31943;51.410;7.564;2022-07-29T07:17:16;3.20;;;1.50;;
46222;SDS011;31943;51.410;7.564;2022-07-29T07:19:41;7.13;;;1.80;;
46222;SDS011;31943;51.410;7.564;2022-07-29T07:22:09;5.30;;;1.67;;
46222;SDS011;31943;51.410;7.564;2022-07-29T07:24:34;5.75;;;1.67;;
46222;SDS011;31943;51.410;7.564;2022-07-29T07:27:00;4.43;;;1.13;;
46222;SDS011;31943;51.410;7.564;2022-07-29T07:29:25;4.20;;;1.40;;
46222;SDS011;31943;51.410;7.564;2022-07-29T07:31:51;4.40;;;1.60;;
46222;SDS011;31943;51.410;7.564;2022-07-29T07:34:17;3.60;;;1.17;;
46222;SDS011;31943;51.410;7.564;2022-07-29T07:36:42;3.78;;;1.30;;
46222;SDS011;31943;51.410;7.564;2022-07-29T07:39:10;5.97;;;1.63;;
46222;SDS011;31943;51.410;7.564;2022-07-29T07:41:36;5.03;;;1.30;;
46222;SDS011;31943;51.410;7.564;2022-07-29T07:44:02;2.50;;;1.30;;
46222;SDS011;31943;51.410;7.564;2022-07-29T07:46:27;5.65;;;1.50;;
46222;SDS011;31943;51.410;7.564;2022-07-29T07:48:53;5.90;;;1.40;;
46222;SDS011;31943;51.410;7.564;2022-07-29T07:51:18;6.38;;;1.50;;
46222;SDS011;31943;51.410;7.564;2022-07-29T07:53:44;4.93;;;1.70;;
46222;SDS011;31943;51.410;7.564;2022-07-29T07:56:11;3.88;;;1.58;;
46222;SDS011;31943;51.410;7.564;2022-07-29T07:58:37;5.75;;;1.38;;
46222;SDS011;31943;51.410;7.564;2022-07-29T08:01:03;6.10;;;1.48;;
46222;SDS011;31943;51.410;7.564;2022-07-29T08:03:28;7.18;;;1.80;;
46222;SDS011;31943;51.410;7.564;2022-07-29T08:05:54;9.02;;;1.60;;
46222;SDS011;31943;51.410;7.564;2022-07-29T08:08:20;7.63;;;2.33;;
46222;SDS011;31943;51.410;7.564;2022-07-29T08:10:46;5.68;;;1.67;;
46222;SDS011;31943;51.410;7.564;2022-07-29T08:13:13;4.78;;;1.42;;
46222;SDS011;31943;51.410;7.564;2022-07-29T08:15:39;4.80;;;1.60;;
46222;SDS011;31943;51.410;7.564;2022-07-29T08:18:05;4.82;;;1.60;;
46222;SDS011;31943;51.410;7.564;2022-07-29T08:20:31;3.30;;;1.77;;
46222;SDS011;31943;51.410;7.564;2022-07-29T08:22:57;3.78;;;1.40;;
46222;SDS011;31943;51.410;7.564;2022-07-29T08:25:22;4.95;;;1.60;;
46222;SDS011;31943;51.410;7.564;2022-07-29T08:27:48;8.70;;;1.77;;
46222;SDS011;31943;51.410;7.564;2022-07-29T08:30:15;8.68;;;1.77;;
46222;SDS011;31943;51.410;7.564;2022-07-29T08:32:41;2.63;;;1.45;;
46222;SDS011;31943;51.410;7.564;2022-07-29T08:35:07;4.65;;;1.65;;
46222;SDS011;31943;51.410;7.564;2022-07-29T08:37:33;9.63;;;1.65;;
46222;SDS011;31943;51.410;7.564;2022-07-29T08:39:59;9.48;;;2.22;;
46222;SDS011;31943;51.410;7.564;2022-07-29T08:42:24;3.40;;;1.45;;
46222;SDS011;31943;51.410;7.564;2022-07-29T08:44:50;6.60;;;1.60;;
46222;SDS011;31943;51.410;7.564;2022-07-29T08:47:17;6.18;;;1.70;;
46222;SDS011;31943;51.410;7.564;2022-07-29T08:49:43;5.05;;;1.52;;
46222;SDS011;31943;51.410;7.564;2022-07-29T08:52:10;8.93;;;1.95;;
46222;SDS011;31943;51.410;7.564;2022-07-29T08:54:37;9.07;;;1.77;;
46222;SDS011;31943;51.410;7.564;2022-07-29T08:57:04;7.53;;;2.00;;
46222;SDS011;31943;51.410;7.564;2022-07-29T08:59:30;7.97;;;1.60;;
46222;SDS011;31943;51.410;7.564;2022-07-29T09:01:59;6.53;;;1.60;;
46222;SDS011;31943;51.410;7.564;2022-07-29T09:04:29;6.43;;;1.70;;
46222;SDS011;31943;51.410;7.564;2022-07-29T09:06:59;5.43;;;1.80;;
46222;SDS011;31943;51.410;7.564;2022-07-29T09:09:28;5.03;;;1.70;;
46222;SDS011;31943;51.410;7.564;2022-07-29T09:11:55;5.57;;;1.52;;
46222;SDS011;31943;51.410;7.564;2022-07-29T09:14:21;10.30;;;1.88;;
46222;SDS011;31943;51.410;7.564;2022-07-29T09:16:48;4.72;;;1.40;;
46222;SDS011;31943;51.410;7.564;2022-07-29T09:19:19;5.80;;;1.60;;
46222;SDS011;31943;51.410;7.564;2022-07-29T09:21:51;10.23;;;1.90;;
46222;SDS011;31943;51.410;7.564;2022-07-29T09:24:18;3.92;;;1.63;;
46222;SDS011;31943;51.410;7.564;2022-07-29T09:26:44;4.82;;;1.50;;
46222;SDS011;31943;51.410;7.564;2022-07-29T09:29:11;4.00;;;1.50;;
46222;SDS011;31943;51.410;7.564;2022-07-29T09:31:38;5.32;;;1.70;;
46222;SDS011;31943;51.410;7.564;2022-07-29T09:34:05;5.82;;;1.55;;
46222;SDS011;31943;51.410;7.564;2022-07-29T09:36:35;4.45;;;1.60;;
46222;SDS011;31943;51.410;7.564;2022-07-29T09:39:06;5.93;;;1.92;;
46222;SDS011;31943;51.410;7.564;2022-07-29T09:41:43;5.82;;;1.85;;
46222;SDS011;31943;51.410;7.564;2022-07-29T09:44:09;4.80;;;1.63;;
46222;SDS011;31943;51.410;7.564;2022-07-29T09:46:35;3.75;;;1.45;;
46222;SDS011;31943;51.410;7.564;2022-07-29T09:49:10;5.50;;;1.67;;
46222;SDS011;31943;51.410;7.564;2022-07-29T09:51:37;6.93;;;1.50;;
46222;SDS011;31943;51.410;7.564;2022-07-29T09:54:13;4.80;;;1.60;;
46222;SDS011;31943;51.410;7.564;2022-07-29T09:56:46;4.32;;;1.73;;
46222;SDS011;31943;51.410;7.564;2022-07-29T09:59:12;5.95;;;1.40;;
46222;SDS011;31943;51.410;7.564;2022-07-29T10:01:38;6.72;;;1.70;;
46222;SDS011;31943;51.410;7.564;2022-07-29T10:04:04;6.90;;;1.88;;
46222;SDS011;31943;51.410;7.564;2022-07-29T10:06:29;6.80;;;1.90;;
46222;SDS011;31943;51.410;7.564;2022-07-29T10:09:01;5.43;;;2.00;;
46222;SDS011;31943;51.410;7.564;2022-07-29T10:11:34;6.57;;;2.00;;
46222;SDS011;31943;51.410;7.564;2022-07-29T10:14:01;6.97;;;2.10;;
46222;SDS011;31943;51.410;7.564;2022-07-29T10:16:27;6.50;;;2.10;;
46222;SDS011;31943;51.410;7.564;2022-07-29T10:18:54;7.07;;;2.47;;
46222;SDS011;31943;51.410;7.564;2022-07-29T10:21:20;6.18;;;1.67;;
46222;SDS011;31943;51.410;7.564;2022-07-29T10:23:46;6.70;;;1.67;;
46222;SDS011;31943;51.410;7.564;2022-07-29T10:26:11;6.10;;;2.10;;
46222;SDS011;31943;51.410;7.564;2022-07-29T10:28:39;6.82;;;2.38;;
46222;SDS011;31943;51.410;7.564;2022-07-29T10:31:08;8.40;;;2.72;;
46222;SDS011;31943;51.410;7.564;2022-07-29T10:33:44;8.65;;;2.90;;
46222;SDS011;31943;51.410;7.564;2022-07-29T10:36:24;13.07;;;3.05;;
46222;SDS011;31943;51.410;7.564;2022-07-29T10:39:02;11.35;;;2.72;;
46222;SDS011;31943;51.410;7.564;2022-07-29T10:41:43;10.20;;;2.83;;
46222;SDS011;31943;51.410;7.564;2022-07-29T10:44:19;9.88;;;2.80;;
46222;SDS011;31943;51.410;7.564;2022-07-29T10:46:47;10.65;;;2.90;;
46222;SDS011;31943;51.410;7.564;2022-07-29T10:49:14;8.95;;;2.50;;
46222;SDS011;31943;51.410;7.564;2022-07-29T10:51:51;7.43;;;2.60;;
46222;SDS011;31943;51.410;7.564;2022-07-29T10:54:19;10.23;;;3.00;;
46222;SDS011;31943;51.410;7.564;2022-07-29T10:57:10;5.40;;;2.35;;
46222;SDS011;31943;51.410;7.564;2022-07-29T10:59:41;13.40;;;2.85;;
46222;SDS011;31943;51.410;7.564;2022-07-29T11:05:07;6.93;;;2.50;;
46222;SDS011;31943;51.410;7.564;2022-07-29T11:07:33;10.38;;;2.75;;
46222;SDS011;31943;51.410;7.564;2022-07-29T11:12:46;8.68;;;3.03;;
46222;SDS011;31943;51.410;7.564;2022-07-29T11:15:14;9.32;;;2.63;;
46222;SDS011;31943;51.410;7.564;2022-07-29T11:20:32;9.32;;;3.20;;
46222;SDS011;31943;51.410;7.564;2022-07-29T11:23:17;7.32;;;3.67;;
46222;SDS011;31943;51.410;7.564;2022-07-29T11:25:44;7.32;;;3.30;;
46222;SDS011;31943;51.410;7.564;2022-07-29T11:28:12;9.40;;;4.00;;
46222;SDS011;31943;51.410;7.564;2022-07-29T11:30:49;9.25;;;3.53;;
46222;SDS011;31943;51.410;7.564;2022-07-29T11:33:29;5.20;;;3.00;;
46222;SDS011;31943;51.410;7.564;2022-07-29T11:36:08;9.90;;;2.95;;
46222;SDS011;31943;51.410;7.564;2022-07-29T11:38:35;6.47;;;3.42;;
46222;SDS011;31943;51.410;7.564;2022-07-29T11:41:19;7.65;;;3.85;;
46222;SDS011;31943;51.410;7.564;2022-07-29T11:43:49;7.53;;;3.65;;
46222;SDS011;31943;51.410;7.564;2022-07-29T11:46:17;6.60;;;3.95;;
46222;SDS011;31943;51.410;7.564;2022-07-29T11:49:05;10.60;;;3.50;;
46222;SDS011;31943;51.410;7.564;2022-07-29T11:51:31;7.28;;;3.47;;
46222;SDS011;31943;51.410;7.564;2022-07-29T11:53:57;7.45;;;2.97;;
46222;SDS011;31943;51.410;7.564;2022-07-29T11:56:24;7.60;;;2.90;;
46222;SDS011;31943;51.410;7.564;2022-07-29T11:59:01;4.97;;;2.92;;
46222;SDS011;31943;51.410;7.564;2022-07-29T12:01:30;6.47;;;3.13;;
46222;SDS011;31943;51.410;7.564;2022-07-29T12:04:01;6.07;;;2.60;;
46222;SDS011;31943;51.410;7.564;2022-07-29T12:06:28;6.15;;;2.80;;
46222;SDS011;31943;51.410;7.564;2022-07-29T12:08:54;4.43;;;2.53;;
46222;SDS011;31943;51.410;7.564;2022-07-29T12:11:20;6.35;;;3.03;;
46222;SDS011;31943;51.410;7.564;2022-07-29T12:13:46;7.22;;;2.60;;
46222;SDS011;31943;51.410;7.564;2022-07-29T12:16:11;3.53;;;2.38;;
46222;SDS011;31943;51.410;7.564;2022-07-29T12:18:39;5.35;;;2.72;;
46222;SDS011;31943;51.410;7.564;2022-07-29T12:21:04;8.07;;;3.15;;
46222;SDS011;31943;51.410;7.564;2022-07-29T12:23:30;4.32;;;2.83;;
46222;SDS011;31943;51.410;7.564;2022-07-29T12:25:55;6.30;;;2.50;;
46222;SDS011;31943;51.410;7.564;2022-07-29T12:28:23;8.07;;;2.83;;
46222;SDS011;31943;51.410;7.564;2022-07-29T12:30:49;5.78;;;2.30;;
46222;SDS011;31943;51.410;7.564;2022-07-29T12:33:19;4.65;;;2.92;;
46222;SDS011;31943;51.410;7.564;2022-07-29T12:35:49;8.75;;;2.60;;
46222;SDS011;31943;51.410;7.564;2022-07-29T12:38:17;8.40;;;2.05;;
46222;SDS011;31943;51.410;7.564;2022-07-29T12:40:44;5.65;;;2.20;;
46222;SDS011;31943;51.410;7.564;2022-07-29T12:43:12;7.03;;;2.88;;
46222;SDS011;31943;51.410;7.564;2022-07-29T12:45:39;6.32;;;3.00;;
46222;SDS011;31943;51.410;7.564;2022-07-29T12:48:09;5.78;;;2.53;;
46222;SDS011;31943;51.410;7.564;2022-07-29T12:50:35;8.57;;;2.95;;
46222;SDS011;31943;51.410;7.564;2022-07-29T12:53:14;6.68;;;3.00;;
46222;SDS011;31943;51.410;7.564;2022-07-29T12:55:41;5.72;;;2.78;;
46222;SDS011;31943;51.410;7.564;2022-07-29T12:58:07;3.47;;;2.33;;
46222;SDS011;31943;51.410;7.564;2022-07-29T13:00:33;5.60;;;2.75;;
46222;SDS011;31943;51.410;7.564;2022-07-29T13:02:59;6.97;;;2.78;;
46222;SDS011;31943;51.410;7.564;2022-07-29T13:05:38;6.75;;;2.80;;
46222;SDS011;31943;51.410;7.564;2022-07-29T13:08:11;8.80;;;2.97;;
46222;SDS011;31943;51.410;7.564;2022-07-29T13:10:38;5.43;;;3.40;;
46222;SDS011;31943;51.410;7.564;2022-07-29T13:13:04;6.40;;;2.67;;
46222;SDS011;31943;51.410;7.564;2022-07-29T13:15:31;11.10;;;3.35;;
46222;SDS011;31943;51.410;7.564;2022-07-29T13:17:57;5.78;;;2.70;;
46222;SDS011;31943;51.410;7.564;2022-07-29T13:20:24;6.68;;;2.65;;
46222;SDS011;31943;51.410;7.564;2022-07-29T13:22:51;6.35;;;3.00;;
46222;SDS011;31943;51.410;7.564;2022-07-29T13:25:25;5.75;;;2.75;;
46222;SDS011;31943;51.410;7.564;2022-07-29T13:27:52;6.85;;;2.83;;
46222;SDS011;31943;51.410;7.564;2022-07-29T13:30:17;6.20;;;3.17;;
46222;SDS011;31943;51.410;7.564;2022-07-29T13:32:43;9.55;;;3.08;;
46222;SDS011;31943;51.410;7.564;2022-07-29T13:35:09;4.22;;;2.70;;
46222;SDS011;31943;51.410;7.564;2022-07-29T13:37:35;6.97;;;3.00;;
46222;SDS011;31943;51.410;7.564;2022-07-29T13:40:02;5.68;;;2.83;;
46222;SDS011;31943;51.410;7.564;2022-07-29T13:42:30;5.40;;;3.20;;
46222;SDS011;31943;51.410;7.564;2022-07-29T13:44:56;8.68;;;3.05;;
46222;SDS011;31943;51.410;7.564;2022-07-29T13:47:22;6.13;;;3.00;;
46222;SDS011;31943;51.410;7.564;2022-07-29T13:49:48;5.32;;;2.78;;
46222;SDS011;31943;51.410;7.564;2022-07-29T13:52:14;7.05;;;2.22;;
46222;SDS011;31943;51.410;7.564;2022-07-29T13:54:40;7.97;;;2.72;;
46222;SDS011;31943;51.410;7.564;2022-07-29T13:57:05;4.82;;;2.72;;
46222;SDS011;31943;51.410;7.564;2022-07-29T13:59:33;5.97;;;3.10;;
46222;SDS011;31943;51.410;7.564;2022-07-29T14:02:00;4.95;;;2.80;;
46222;SDS011;31943;51.410;7.564;2022-07-29T14:04:25;3.53;;;2.90;;
46222;SDS011;31943;51.410;7.564;2022-07-29T14:06:51;7.43;;;3.10;;
46222;SDS011;31943;51.410;7.564;2022-07-29T14:09:17;8.13;;;2.75;;
46222;SDS011;31943;51.410;7.564;2022-07-29T14:11:43;6.65;;;3.10;;
46222;SDS011;31943;51.410;7.564;2022-07-29T14:14:09;8.57;;;3.22;;
46222;SDS011;31943;51.410;7.564;2022-07-29T14:16:36;9.25;;;3.30;;
46222;SDS011;31943;51.410;7.564;2022-07-29T14:19:02;4.72;;;2.97;;
46222;SDS011;31943;51.410;7.564;2022-07-29T14:21:28;8.10;;;3.55;;
46222;SDS011;31943;51.410;7.564;2022-07-29T14:23:53;5.70;;;3.15;;
46222;SDS011;31943;51.410;7.564;2022-07-29T14:26:19;4.30;;;2.88;;
46222;SDS011;31943;51.410;7.564;2022-07-29T14:28:45;8.32;;;2.80;;
46222;SDS011;31943;51.410;7.564;2022-07-29T14:31:11;5.05;;;2.70;;
46222;SDS011;31943;51.410;7.564;2022-07-29T14:33:38;8.98;;;2.92;;
46222;SDS011;31943;51.410;7.564;2022-07-29T14:36:04;7.38;;;2.85;;
46222;SDS011;31943;51.410;7.564;2022-07-29T14:38:29;5.80;;;3.38;;
46222;SDS011;31943;51.410;7.564;2022-07-29T14:40:55;5.53;;;2.75;;
46222;SDS011;31943;51.410;7.564;2022-07-29T14:43:22;6.70;;;3.08;;
46222;SDS011;31943;51.410;7.564;2022-07-29T14:45:48;9.20;;;2.50;;
46222;SDS011;31943;51.410;7.564;2022-07-29T14:48:14;7.60;;;2.55;;
46222;SDS011;31943;51.410;7.564;2022-07-29T14:50:41;6.15;;;3.03;;
46222;SDS011;31943;51.410;7.564;2022-07-29T14:53:07;5.13;;;2.20;;
46222;SDS011;31943;51.410;7.564;2022-07-29T14:55:33;8.57;;;2.53;;
46222;SDS011;31943;51.410;7.564;2022-07-29T14:57:58;4.47;;;2.78;;
46222;SDS011;31943;51.410;7.564;2022-07-29T15:00:27;4.90;;;2.25;;